createdAt,value
2019-04-26T00:00:10.187Z,97.78
2019-04-26T00:02:49.372Z,97.79
2019-04-26T00:05:18.509Z,98.25
2019-04-26T00:07:47.147Z,98.17
2019-04-26T00:10:26.525Z,97.61
2019-04-26T00:13:05.907Z,95.77
2019-04-26T00:15:36.205Z,96.59
2019-04-26T00:18:05.506Z,95.90
2019-04-26T00:20:33.893Z,96.00
2019-04-26T00:23:02.306Z,96.56
2019-04-26T00:25:30.702Z,96.21
2019-04-26T00:27:59.114Z,96.38
2019-04-26T00:30:27.549Z,95.71
2019-04-26T00:32:55.946Z,96.70
2019-04-26T00:35:24.337Z,97.28
2019-04-26T00:37:52.821Z,96.45
2019-04-26T00:40:22.363Z,95.69
2019-04-26T00:42:51.823Z,94.86
2019-04-26T00:45:21.268Z,96.03
2019-04-26T00:47:51.215Z,95.17
2019-04-26T00:50:21.229Z,95.46
2019-04-26T00:52:51.126Z,96.91
2019-04-26T00:55:21.908Z,97.42
2019-04-26T00:57:51.404Z,97.76
2019-04-26T01:00:21.514Z,95.96
2019-04-26T01:02:54.432Z,95.14
2019-04-26T01:05:23.121Z,94.91
2019-04-26T01:07:53.253Z,96.08
2019-04-26T01:10:21.772Z,96.99
2019-04-26T01:12:50.199Z,97.16
2019-04-26T01:15:19.941Z,96.59
2019-04-26T01:17:48.763Z,95.85
2019-04-26T01:20:18.929Z,95.73
2019-04-26T01:22:50.421Z,96.69
2019-04-26T01:25:33.147Z,94.81
2019-04-26T01:28:02.684Z,96.12
2019-04-26T01:30:32.858Z,95.41
2019-04-26T01:33:02.905Z,95.79
2019-04-26T01:35:31.771Z,95.87
2019-04-26T01:38:03.455Z,96.43
2019-04-26T01:40:33.645Z,96.92
2019-04-26T01:43:03.785Z,97.01
2019-04-26T01:45:48.560Z,96.73
2019-04-26T01:48:37.791Z,95.69
2019-04-26T01:51:06.945Z,95.74
2019-04-26T01:53:35.886Z,94.45
2019-04-26T01:56:04.681Z,95.25
2019-04-26T01:58:33.148Z,96.26
2019-04-26T02:01:13.171Z,95.61
2019-04-26T02:03:41.583Z,94.91
2019-04-26T02:06:10.146Z,95.00
2019-04-26T02:08:39.135Z,94.73
2019-04-26T02:11:07.859Z,95.04
2019-04-26T02:13:36.266Z,95.07
2019-04-26T02:16:05.017Z,94.50
2019-04-26T02:18:33.654Z,93.61
2019-04-26T02:21:09.238Z,94.26
2019-04-26T02:23:42.408Z,95.31
2019-04-26T02:26:30.350Z,96.33
2019-04-26T02:28:58.817Z,96.32
2019-04-26T02:31:29.318Z,96.31
2019-04-26T02:33:58.814Z,96.58
2019-04-26T02:36:48.383Z,96.42
2019-04-26T02:39:01.252Z,96.36
2019-04-26T02:41:32.051Z,95.72
2019-04-26T02:44:03.809Z,93.80
2019-04-26T02:46:48.830Z,94.68
2019-04-26T02:49:19.897Z,94.37
2019-04-26T02:52:06.231Z,95.07
2019-04-26T02:54:46.588Z,93.89
2019-04-26T02:57:18.038Z,93.86
2019-04-26T02:59:48.778Z,92.56
2019-04-26T03:02:22.134Z,92.48
2019-04-26T03:04:53.317Z,91.97
2019-04-26T03:07:32.148Z,90.18
2019-04-26T03:10:01.222Z,90.37
2019-04-26T03:12:34.418Z,90.06
2019-04-26T03:15:13.990Z,88.72
2019-04-26T03:17:50.029Z,87.34
2019-04-26T03:20:23.119Z,85.74
2019-04-26T03:23:03.123Z,84.22
2019-04-26T03:25:43.607Z,84.98
2019-04-26T03:28:15.088Z,83.88
2019-04-26T03:31:18.529Z,84.42
2019-04-26T03:33:59.293Z,84.27
2019-04-26T03:36:40.642Z,84.18
2019-04-26T03:39:18.235Z,84.29
2019-04-26T03:42:00.123Z,85.10
2019-04-26T03:44:41.141Z,84.70
2019-04-26T03:47:13.376Z,84.73
2019-04-26T03:49:54.536Z,84.10
2019-04-26T03:52:44.142Z,84.47
2019-04-26T03:55:29.585Z,84.29
2019-04-26T03:58:05.499Z,83.98
2019-04-26T04:00:45.183Z,84.31
2019-04-26T04:03:27.489Z,85.32
2019-04-26T04:05:59.954Z,84.35
2019-04-26T04:08:49.277Z,83.00
2019-04-26T04:11:23.533Z,82.65
2019-04-26T04:14:04.081Z,83.29
2019-04-26T04:16:49.447Z,83.94
2019-04-26T04:19:59.148Z,85.17
2019-04-26T04:22:33.421Z,84.77
2019-04-26T04:25:07.568Z,83.58
2019-04-26T04:27:51.703Z,82.97
2019-04-26T04:30:47.717Z,84.79
2019-04-26T04:33:22.831Z,84.31
2019-04-26T04:35:54.289Z,84.52
2019-04-26T04:38:46.398Z,84.94
2019-04-26T04:41:23.291Z,83.55
2019-04-26T04:44:32.749Z,82.33
2019-04-26T04:47:23.528Z,82.76
2019-04-26T04:49:58.972Z,82.74
2019-04-26T04:52:36.014Z,83.16
2019-04-26T04:55:28.538Z,83.45
2019-04-26T04:58:08.686Z,83.26
2019-04-26T05:01:21.353Z,82.44
2019-04-26T05:04:06.553Z,81.94
2019-04-26T05:07:05.171Z,80.23
2019-04-26T05:09:45.337Z,81.98
2019-04-26T05:12:25.845Z,81.58
2019-04-26T05:15:07.441Z,80.65
2019-04-26T05:17:56.871Z,81.40
2019-04-26T05:20:37.275Z,80.80
2019-04-26T05:23:23.072Z,79.52
2019-04-26T05:25:59.045Z,79.55
2019-04-26T05:31:22.318Z,80.65
2019-04-26T05:34:03.786Z,81.67
2019-04-26T05:36:41.355Z,81.00
2019-04-26T05:39:24.958Z,81.04
2019-04-26T05:42:22.376Z,81.75
2019-04-26T05:45:07.546Z,82.00
2019-04-26T05:47:46.456Z,81.40
2019-04-26T05:50:58.989Z,82.42
2019-04-26T05:53:59.164Z,83.63
2019-04-26T05:56:47.405Z,81.71
2019-04-26T05:59:31.699Z,80.75
2019-04-26T06:02:14.017Z,78.20
2019-04-26T06:05:06.746Z,79.24
2019-04-26T06:07:54.667Z,80.56
2019-04-26T06:10:28.088Z,79.94
2019-04-26T06:13:19.957Z,80.38
2019-04-26T06:16:17.235Z,79.87
2019-04-26T06:19:06.057Z,78.29
2019-04-26T06:21:42.837Z,77.77
2019-04-26T06:24:19.974Z,78.43
2019-04-26T06:27:14.349Z,77.57
2019-04-26T06:29:58.659Z,77.09
2019-04-26T06:32:39.502Z,77.71
2019-04-26T06:35:19.868Z,77.60
2019-04-26T06:38:17.602Z,76.43
2019-04-26T06:41:05.262Z,77.54
2019-04-26T06:43:41.017Z,78.09
2019-04-26T06:46:28.940Z,78.19
2019-04-26T06:49:14.279Z,78.36
2019-04-26T06:52:16.185Z,78.55
2019-04-26T06:54:57.689Z,78.67
2019-04-26T06:58:07.344Z,78.85
2019-04-26T07:01:11.391Z,79.80
2019-04-26T07:04:05.645Z,79.62
2019-04-26T07:06:53.670Z,79.62
2019-04-26T07:09:25.104Z,79.32
2019-04-26T07:12:25.525Z,79.72
2019-04-26T07:15:28.425Z,79.02
2019-04-26T07:18:16.283Z,78.67
2019-04-26T07:20:52.667Z,79.40
2019-04-26T07:23:40.774Z,78.61
2019-04-26T07:26:45.797Z,79.19
2019-04-26T07:29:41.650Z,79.51
2019-04-26T07:32:18.971Z,79.78
2019-04-26T07:35:02.621Z,81.25
2019-04-26T07:38:09.248Z,78.30
2019-04-26T07:40:57.505Z,78.30
2019-04-26T07:43:54.652Z,78.00
2019-04-26T07:46:35.219Z,78.81
2019-04-26T07:49:23.154Z,78.42
2019-04-26T07:52:27.999Z,78.86
2019-04-26T07:55:19.109Z,75.49
2019-04-26T07:58:23.782Z,76.09
2019-04-26T08:00:59.468Z,76.42
2019-04-26T08:03:32.575Z,76.85
2019-04-26T08:06:21.717Z,75.29
2019-04-26T08:09:05.959Z,75.56
2019-04-26T08:11:40.154Z,75.77
2019-04-26T08:14:14.771Z,74.84
2019-04-26T08:17:05.308Z,74.21
2019-04-26T08:19:40.185Z,75.20
2019-04-26T08:22:20.385Z,75.89
2019-04-26T08:24:45.710Z,74.46
2019-04-26T08:27:23.328Z,74.59
2019-04-26T08:29:50.703Z,74.01
2019-04-26T08:32:28.238Z,75.09
2019-04-26T08:34:58.054Z,74.26
2019-04-26T08:37:36.515Z,73.98
2019-04-26T08:40:05.741Z,72.87
2019-04-26T08:42:45.848Z,73.27
2019-04-26T08:45:21.809Z,72.19
2019-04-26T08:47:58.097Z,72.35
2019-04-26T08:50:29.614Z,72.70
2019-04-26T08:53:01.063Z,69.97
2019-04-26T08:55:31.747Z,69.69
2019-04-26T08:58:03.215Z,70.08
2019-04-26T09:00:42.193Z,70.24
2019-04-26T09:03:32.328Z,69.69
2019-04-26T09:06:20.954Z,66.75
2019-04-26T09:08:51.576Z,66.88
2019-04-26T09:11:25.773Z,69.10
2019-04-26T09:13:53.973Z,66.70
2019-04-26T09:16:26.157Z,66.36
2019-04-26T09:18:59.372Z,66.00
2019-04-26T09:21:28.935Z,67.51
2019-04-26T09:24:14.425Z,67.04
2019-04-26T09:26:48.504Z,66.49
2019-04-26T09:29:30.400Z,67.51
2019-04-26T09:31:59.249Z,67.90
2019-04-26T09:34:35.039Z,66.83
2019-04-26T09:37:03.451Z,68.74
2019-04-26T09:39:31.847Z,67.15
2019-04-26T09:42:05.902Z,66.53
2019-04-26T09:44:41.456Z,66.80
2019-04-26T09:47:11.769Z,66.03
2019-04-26T09:49:54.117Z,65.99
2019-04-26T09:52:26.935Z,63.51
2019-04-26T09:54:55.347Z,64.86
2019-04-26T09:57:23.748Z,65.79
2019-04-26T09:59:52.179Z,65.74
2019-04-26T10:02:20.657Z,66.49
2019-04-26T10:04:49.563Z,65.50
2019-04-26T10:07:17.984Z,65.01
2019-04-26T10:09:46.404Z,63.37
2019-04-26T10:12:16.685Z,64.50
2019-04-26T10:14:55.462Z,63.28
2019-04-26T10:17:25.538Z,61.25
2019-04-26T10:19:55.006Z,60.81
2019-04-26T10:22:25.085Z,61.81
2019-04-26T10:24:53.509Z,61.74
2019-04-26T10:27:21.914Z,61.82
2019-04-26T10:29:50.385Z,61.66
2019-04-26T10:32:21.788Z,62.84
2019-04-26T10:34:49.021Z,60.62
2019-04-26T10:37:17.386Z,58.18
2019-04-26T10:39:45.811Z,58.04
2019-04-26T10:42:15.395Z,60.29
2019-04-26T10:44:43.811Z,57.62
2019-04-26T10:47:12.387Z,57.46
2019-04-26T10:49:43.744Z,58.43
2019-04-26T10:52:15.772Z,57.67
2019-04-26T10:55:03.444Z,60.19
2019-04-26T10:57:39.203Z,58.70
2019-04-26T11:00:10.198Z,59.77
2019-04-26T11:02:38.613Z,58.66
2019-04-26T11:05:07.751Z,56.64
2019-04-26T11:07:36.175Z,55.62
2019-04-26T11:10:06.395Z,56.07
2019-04-26T11:12:34.794Z,55.25
2019-04-26T11:15:06.043Z,55.65
2019-04-26T11:17:33.422Z,56.07
2019-04-26T11:20:01.829Z,53.34
2019-04-26T11:22:33.475Z,55.27
2019-04-26T11:25:00.371Z,54.85
2019-04-26T11:27:29.439Z,54.09
2019-04-26T11:29:59.671Z,52.17
2019-04-26T11:32:28.060Z,50.42
2019-04-26T11:34:58.750Z,48.45
2019-04-26T11:37:26.715Z,52.24
2019-04-26T11:39:55.115Z,50.23
2019-04-26T11:42:23.527Z,48.89
2019-04-26T11:44:52.240Z,50.66
2019-04-26T11:47:20.643Z,46.82
2019-04-26T11:49:50.090Z,48.25
2019-04-26T11:52:18.714Z,46.80
2019-04-26T11:54:47.122Z,47.32
2019-04-26T11:57:15.511Z,48.18
2019-04-26T11:59:43.941Z,47.42
2019-04-26T12:02:15.896Z,47.88
2019-04-26T12:04:49.616Z,49.84
2019-04-26T12:07:18.887Z,49.23
2019-04-26T12:09:48.924Z,47.98
2019-04-26T12:12:17.396Z,48.28
2019-04-26T12:14:45.819Z,45.92
2019-04-26T12:17:14.227Z,48.64
2019-04-26T12:19:42.611Z,47.01
2019-04-26T12:22:11.215Z,46.32
2019-04-26T12:24:39.631Z,46.76
2019-04-26T12:27:10.223Z,45.09
2019-04-26T12:29:38.593Z,46.54
2019-04-26T12:32:06.980Z,42.11
2019-04-26T12:34:35.359Z,45.52
2019-04-26T12:37:03.942Z,45.35
2019-04-26T12:39:36.475Z,46.14
2019-04-26T12:42:02.724Z,45.89
2019-04-26T12:44:36.831Z,45.62
2019-04-26T12:47:05.189Z,47.53
2019-04-26T12:49:35.398Z,49.24
2019-04-26T12:52:04.137Z,46.88
2019-04-26T12:54:32.540Z,44.73
2019-04-26T12:57:01.661Z,43.76
2019-04-26T12:59:43.318Z,43.38
2019-04-26T13:02:05.814Z,43.67
2019-04-26T13:04:36.335Z,42.28
2019-04-26T13:07:22.735Z,43.24
2019-04-26T13:09:42.109Z,41.05
2019-04-26T13:12:12.141Z,40.27
2019-04-26T13:14:56.924Z,41.87
2019-04-26T13:17:35.782Z,41.65
2019-04-26T13:20:03.506Z,40.80
2019-04-26T13:22:32.200Z,40.99
2019-04-26T13:25:01.674Z,41.63
2019-04-26T13:27:30.105Z,42.85
2019-04-26T13:30:02.352Z,43.64
2019-04-26T13:32:28.639Z,44.48
2019-04-26T13:34:58.005Z,42.91
2019-04-26T13:37:26.413Z,43.70
2019-04-26T13:39:55.331Z,43.12
2019-04-26T13:42:25.091Z,44.79
2019-04-26T13:44:57.845Z,42.02
2019-04-26T13:47:34.013Z,43.64
2019-04-26T13:50:04.052Z,42.72
2019-04-26T13:52:32.452Z,44.35
2019-04-26T13:55:01.150Z,45.80
2019-04-26T13:57:29.554Z,44.36
2019-04-26T13:59:57.957Z,43.76
2019-04-26T14:02:26.386Z,44.41
2019-04-26T14:04:54.786Z,41.19
2019-04-26T14:07:24.437Z,41.21
2019-04-26T14:09:53.778Z,40.94
2019-04-26T14:12:22.170Z,43.35
2019-04-26T14:14:50.583Z,40.84
2019-04-26T14:17:19.100Z,42.07
2019-04-26T14:19:49.615Z,43.50
2019-04-26T14:22:19.273Z,42.13
2019-04-26T14:24:49.358Z,39.75
2019-04-26T14:27:19.428Z,40.63
2019-04-26T14:29:47.833Z,41.57
2019-04-26T14:32:16.244Z,40.93
2019-04-26T14:34:45.288Z,40.36
2019-04-26T14:37:15.590Z,40.84
2019-04-26T14:39:50.719Z,42.14
2019-04-26T14:42:13.980Z,43.15
2019-04-26T14:44:49.317Z,41.72
2019-04-26T14:47:14.125Z,39.44
2019-04-26T14:49:43.103Z,39.86
2019-04-26T14:52:11.621Z,41.13
2019-04-26T14:54:41.537Z,41.76
2019-04-26T14:57:16.986Z,42.19
2019-04-26T14:59:46.962Z,40.38
2019-04-26T15:02:33.135Z,39.27
2019-04-26T15:05:22.246Z,40.58
2019-04-26T15:07:52.021Z,40.79
2019-04-26T15:10:22.492Z,42.57
2019-04-26T15:12:58.544Z,41.93
2019-04-26T15:15:21.438Z,40.73
2019-04-26T15:17:55.130Z,39.78
2019-04-26T15:20:20.819Z,39.48
2019-04-26T15:22:50.565Z,41.81
2019-04-26T15:25:18.950Z,38.79
2019-04-26T15:27:47.987Z,37.71
2019-04-26T15:30:16.508Z,37.18
2019-04-26T15:32:44.902Z,37.38
2019-04-26T15:35:16.132Z,38.59
2019-04-26T15:37:43.447Z,38.53
2019-04-26T15:40:13.616Z,41.40
2019-04-26T15:42:58.727Z,41.01
2019-04-26T15:45:38.731Z,41.94
2019-04-26T15:48:09.961Z,44.00
2019-04-26T15:50:49.488Z,41.85
2019-04-26T15:53:14.774Z,41.74
2019-04-26T15:55:43.648Z,40.33
2019-04-26T15:58:12.082Z,41.78
2019-04-26T16:00:40.552Z,41.86
2019-04-26T16:03:08.942Z,40.83
2019-04-26T16:05:37.356Z,40.69
2019-04-26T16:08:05.822Z,41.13
2019-04-26T16:10:38.208Z,39.50
2019-04-26T16:13:18.122Z,40.85
2019-04-26T16:15:34.585Z,42.41
2019-04-26T16:18:04.230Z,42.62
2019-04-26T16:20:37.587Z,41.75
2019-04-26T16:23:05.793Z,41.33
2019-04-26T16:25:34.357Z,43.41
2019-04-26T16:28:22.735Z,43.16
2019-04-26T16:30:55.648Z,42.72
2019-04-26T16:33:28.437Z,42.79
2019-04-26T16:35:57.404Z,40.86
2019-04-26T16:38:33.728Z,41.33
2019-04-26T16:41:03.272Z,42.14
2019-04-26T16:43:37.800Z,40.99
2019-04-26T16:46:02.353Z,41.59
2019-04-26T16:48:30.886Z,39.63
2019-04-26T16:51:00.902Z,39.22
2019-04-26T16:53:43.669Z,38.57
2019-04-26T16:55:59.545Z,39.37
2019-04-26T16:58:34.803Z,39.75
2019-04-26T17:00:58.354Z,40.38
2019-04-26T17:03:26.963Z,40.68
2019-04-26T17:06:05.248Z,41.70
2019-04-26T17:08:27.380Z,41.80
2019-04-26T17:10:56.661Z,41.05
2019-04-26T17:13:30.059Z,42.23
2019-04-26T17:15:58.174Z,42.72
2019-04-26T17:18:27.116Z,42.62
2019-04-26T17:20:55.627Z,42.46
2019-04-26T17:23:33.314Z,42.93
2019-04-26T17:26:19.390Z,41.76
2019-04-26T17:28:47.805Z,43.13
2019-04-26T17:31:16.194Z,43.48
2019-04-26T17:33:45.612Z,41.79
2019-04-26T17:36:15.671Z,41.74
2019-04-26T17:38:44.297Z,42.17
2019-04-26T17:41:13.834Z,42.24
2019-04-26T17:43:47.518Z,43.90
2019-04-26T17:46:14.536Z,42.13
2019-04-26T17:48:44.858Z,42.85
2019-04-26T17:51:18.943Z,43.36
2019-04-26T17:53:44.040Z,43.16
2019-04-26T17:56:13.656Z,42.77
2019-04-26T17:58:51.198Z,43.23
2019-04-26T18:01:29.314Z,42.62
2019-04-26T18:03:50.800Z,42.29
2019-04-26T18:06:14.120Z,43.23
2019-04-26T18:08:51.913Z,44.18
2019-04-26T18:11:19.661Z,44.74
2019-04-26T18:13:43.248Z,44.56
2019-04-26T18:16:11.623Z,45.63
2019-04-26T18:18:53.663Z,46.62
2019-04-26T18:21:37.557Z,45.42
2019-04-26T18:24:06.284Z,46.80
2019-04-26T18:26:34.809Z,47.14
2019-04-26T18:29:03.829Z,48.04
2019-04-26T18:31:33.673Z,48.08
2019-04-26T18:34:04.006Z,49.09
2019-04-26T18:36:33.296Z,49.90
2019-04-26T18:39:03.704Z,50.39
2019-04-26T18:41:33.835Z,50.45
2019-04-26T18:44:03.079Z,52.07
2019-04-26T18:46:35.816Z,52.36
2019-04-26T18:49:04.447Z,52.17
2019-04-26T18:51:33.401Z,52.38
2019-04-26T18:54:18.604Z,53.26
2019-04-26T18:56:51.505Z,54.43
2019-04-26T18:59:19.897Z,54.94
2019-04-26T19:01:49.109Z,56.15
2019-04-26T19:04:17.511Z,56.39
2019-04-26T19:06:45.897Z,55.97
2019-04-26T19:09:15.613Z,56.84
2019-04-26T19:11:48.618Z,57.49
2019-04-26T19:14:34.222Z,58.30
2019-04-26T19:17:11.861Z,58.72
2019-04-26T19:19:42.387Z,59.02
2019-04-26T19:22:15.885Z,59.24
2019-04-26T19:24:42.305Z,59.63
2019-04-26T19:27:12.356Z,60.21
2019-04-26T19:29:41.087Z,61.36
2019-04-26T19:32:11.908Z,61.78
2019-04-26T19:34:42.134Z,62.38
2019-04-26T19:37:10.688Z,62.75
2019-04-26T19:39:39.201Z,63.27
2019-04-26T19:42:07.898Z,63.83
2019-04-26T19:44:36.364Z,64.10
2019-04-26T19:47:22.676Z,65.21
2019-04-26T19:50:11.796Z,65.62
2019-04-26T19:52:48.395Z,65.84
2019-04-26T19:55:24.209Z,66.53
2019-04-26T19:58:09.816Z,66.65
2019-04-26T20:00:38.601Z,66.79
2019-04-26T20:03:08.569Z,67.20
2019-04-26T20:05:40.437Z,66.79
2019-04-26T20:08:06.855Z,66.79
2019-04-26T20:10:40.483Z,66.27
2019-04-26T20:13:07.585Z,66.04
2019-04-26T20:15:35.747Z,67.27
2019-04-26T20:18:04.346Z,67.35
2019-04-26T20:20:36.189Z,67.48
2019-04-26T20:23:05.905Z,69.22
2019-04-26T20:25:33.133Z,69.24
2019-04-26T20:28:03.182Z,68.56
2019-04-26T20:30:51.499Z,69.45
2019-04-26T20:33:20.155Z,69.47
2019-04-26T20:35:48.559Z,69.04
2019-04-26T20:38:16.953Z,69.78
2019-04-26T20:40:47.399Z,69.42
2019-04-26T20:43:25.820Z,70.40
2019-04-26T20:46:08.073Z,70.57
2019-04-26T20:48:16.140Z,69.93
2019-04-26T20:50:44.533Z,69.41
2019-04-26T20:53:12.934Z,69.04
2019-04-26T20:55:42.741Z,69.47
2019-04-26T20:58:11.798Z,70.00
2019-04-26T21:00:53.480Z,70.26
2019-04-26T21:03:22.813Z,70.35
2019-04-26T21:05:46.191Z,70.18
2019-04-26T21:08:12.351Z,70.10
2019-04-26T21:10:41.789Z,69.97
2019-04-26T21:13:12.081Z,69.89
2019-04-26T21:15:53.510Z,70.70
2019-04-26T21:18:12.359Z,70.71
2019-04-26T21:20:42.502Z,70.37
2019-04-26T21:23:13.267Z,70.64
2019-04-26T21:25:52.411Z,70.64
2019-04-26T21:28:38.189Z,71.23
2019-04-26T21:31:08.935Z,71.59
2019-04-26T21:33:39.180Z,71.62
2019-04-26T21:36:13.646Z,72.85
2019-04-26T21:38:43.959Z,72.98
2019-04-26T21:41:17.841Z,71.91
2019-04-26T21:43:46.250Z,71.81
2019-04-26T21:46:19.290Z,71.84
2019-04-26T21:48:44.912Z,71.16
2019-04-26T21:51:16.043Z,71.09
2019-04-26T21:53:45.178Z,71.25
2019-04-26T21:56:14.806Z,71.88
2019-04-26T21:58:43.640Z,72.55
2019-04-26T22:01:19.035Z,73.10
2019-04-26T22:03:53.675Z,73.40
2019-04-26T22:06:19.811Z,73.75
2019-04-26T22:08:55.671Z,73.37
2019-04-26T22:11:23.415Z,73.66
2019-04-26T22:13:59.843Z,73.67
2019-04-26T22:16:38.119Z,73.87
2019-04-26T22:19:08.196Z,74.25
2019-04-26T22:21:38.226Z,73.87
2019-04-26T22:24:08.342Z,73.91
2019-04-26T22:26:38.004Z,73.08
2019-04-26T22:29:08.182Z,73.18
2019-04-26T22:31:37.926Z,73.37
2019-04-26T22:34:08.899Z,74.21
2019-04-26T22:36:37.364Z,74.46
2019-04-26T22:39:11.328Z,75.28
2019-04-26T22:41:39.715Z,76.08
2019-04-26T22:44:09.747Z,75.10
2019-04-26T22:46:58.770Z,74.83
2019-04-26T22:49:26.054Z,74.84
2019-04-26T22:51:54.432Z,75.71
2019-04-26T22:54:23.062Z,75.78
2019-04-26T22:56:53.795Z,74.91
2019-04-26T22:59:22.964Z,73.66
2019-04-26T23:01:53.578Z,73.18
2019-04-26T23:04:26.248Z,72.98
2019-04-26T23:06:56.218Z,73.34
2019-04-26T23:09:23.369Z,73.72
2019-04-26T23:11:53.869Z,75.12
2019-04-26T23:14:23.883Z,75.70
2019-04-26T23:17:05.047Z,76.47
2019-04-26T23:19:34.665Z,77.11
2019-04-26T23:22:04.035Z,76.46
2019-04-26T23:24:32.537Z,75.94
2019-04-26T23:27:00.912Z,75.98
2019-04-26T23:29:29.607Z,75.76
2019-04-26T23:31:58.016Z,76.34
2019-04-26T23:34:26.401Z,76.63
2019-04-26T23:36:54.791Z,77.33
2019-04-26T23:39:24.640Z,77.95
2019-04-26T23:41:53.973Z,78.34
2019-04-26T23:44:23.202Z,78.00
2019-04-26T23:46:56.610Z,77.69
2019-04-26T23:49:25.026Z,77.52
2019-04-26T23:51:53.366Z,77.36
2019-04-26T23:54:23.736Z,76.96
2019-04-26T23:56:55.709Z,76.22
2019-04-26T23:59:22.332Z,76.76
